Aviation Digital Data Service (ADDS)

Output produced by TAFs form (0004 UTC 19 July 2018)
found at http://www.aviationweather.gov/adds/tafs/
 
METAR text: RODN 182356Z AUTO 06014G19KT 10SM SCT014 29/25 A2977 RMK AO2 RAB09E21 SLP086 P0002 60004 70023 T02860254 10286 20252 50008 $
Conditions at: RODN (KADENA (USAFB-NA, JP) observed 2356 UTC 18 July 2018
Temperature: 28.6°C (83°F)
Dewpoint: 25.4°C (78°F) [RH = 83%]
Pressure (altimeter): 29.77 inches Hg (1008.2 mb)
[Sea-level pressure: 1008.6 mb]
Winds: from the ENE (60 degrees) at 16 MPH (14 knots; 7.3 m/s)
gusting to 22 MPH (19 knots; 9.9 m/s)
Visibility: 10 or more miles (16+ km)
Ceiling: at least 12,000 feet AGL
Clouds: scattered clouds at 1400 feet AGL
Weather:
SOME DATA ABOVE MAY BE INACCURATE!!!
"$" is an indication the sensor requires maintenance

Forecast for: RODN (KADENA (USAFB-NA, JP)
Text: TAF RODN 181600Z 1816/1922 07015KT 9999 SCT015 QNH2960INS TX30/1906Z TN26/1820Z
Forecast period: 1600 UTC 18 July 2018 to 2200 UTC 19 July 2018
Forecast type: FROM: standard forecast or significant change
Winds: from the ENE (70 degrees) at 17 MPH (15 knots; 7.8 m/s)
Visibility: 6 or more miles (10+ km)
Clouds: scattered clouds at 1500 feet AGL
Weather: no significant weather forecast for this period